sensor_id;sensor_type;location;lat;lon;timestamp;pressure;altitude;pressure_sealevel;temperature
61189;BMP280;47054;39.716;2.904;2023-06-14T00:01:54;99501.63;;;26.30
61189;BMP280;47054;39.716;2.904;2023-06-14T00:04:40;99512.16;;;26.27
61189;BMP280;47054;39.716;2.904;2023-06-14T00:07:36;99518.06;;;26.26
61189;BMP280;47054;39.716;2.904;2023-06-14T00:10:22;99525.56;;;26.22
61189;BMP280;47054;39.716;2.904;2023-06-14T00:13:10;99529.31;;;26.15
61189;BMP280;47054;39.716;2.904;2023-06-14T00:15:55;99535.47;;;26.07
61189;BMP280;47054;39.716;2.904;2023-06-14T00:18:39;99534.97;;;25.99
61189;BMP280;47054;39.716;2.904;2023-06-14T00:21:24;99541.41;;;25.93
61189;BMP280;47054;39.716;2.904;2023-06-14T00:24:08;99541.25;;;25.87
61189;BMP280;47054;39.716;2.904;2023-06-14T00:26:53;99526.28;;;25.83
61189;BMP280;47054;39.716;2.904;2023-06-14T00:29:39;99517.50;;;25.79
61189;BMP280;47054;39.716;2.904;2023-06-14T00:32:24;99513.28;;;25.78
61189;BMP280;47054;39.716;2.904;2023-06-14T00:35:10;99510.22;;;25.76
61189;BMP280;47054;39.716;2.904;2023-06-14T00:37:55;99511.44;;;25.75
61189;BMP280;47054;39.716;2.904;2023-06-14T00:40:40;99513.84;;;25.73
61189;BMP280;47054;39.716;2.904;2023-06-14T00:43:24;99508.84;;;25.71
61189;BMP280;47054;39.716;2.904;2023-06-14T00:46:09;99512.78;;;25.70
61189;BMP280;47054;39.716;2.904;2023-06-14T00:48:56;99513.97;;;25.69
61189;BMP280;47054;39.716;2.904;2023-06-14T00:51:42;99516.38;;;25.67
61189;BMP280;47054;39.716;2.904;2023-06-14T00:54:26;99513.34;;;25.65
61189;BMP280;47054;39.716;2.904;2023-06-14T00:57:12;99506.38;;;25.64
61189;BMP280;47054;39.716;2.904;2023-06-14T00:59:58;99509.41;;;25.66
61189;BMP280;47054;39.716;2.904;2023-06-14T01:03:03;99511.69;;;25.68
61189;BMP280;47054;39.716;2.904;2023-06-14T01:05:53;99507.34;;;25.70
61189;BMP280;47054;39.716;2.904;2023-06-14T01:09:21;99502.56;;;25.74
61189;BMP280;47054;39.716;2.904;2023-06-14T01:15:20;99502.38;;;25.69
61189;BMP280;47054;39.716;2.904;2023-06-14T01:18:05;99504.31;;;25.68
61189;BMP280;47054;39.716;2.904;2023-06-14T01:20:50;99503.09;;;25.69
61189;BMP280;47054;39.716;2.904;2023-06-14T01:23:35;99496.50;;;25.70
61189;BMP280;47054;39.716;2.904;2023-06-14T01:26:21;99496.81;;;25.72
61189;BMP280;47054;39.716;2.904;2023-06-14T01:29:06;99496.03;;;25.72
61189;BMP280;47054;39.716;2.904;2023-06-14T01:31:51;99495.28;;;25.71
61189;BMP280;47054;39.716;2.904;2023-06-14T01:34:36;99499.19;;;25.70
61189;BMP280;47054;39.716;2.904;2023-06-14T01:37:21;99499.66;;;25.69
61189;BMP280;47054;39.716;2.904;2023-06-14T01:40:09;99501.16;;;25.70
61189;BMP280;47054;39.716;2.904;2023-06-14T01:42:54;99493.00;;;25.70
61189;BMP280;47054;39.716;2.904;2023-06-14T01:45:41;99496.50;;;25.70
61189;BMP280;47054;39.716;2.904;2023-06-14T01:48:26;99496.50;;;25.70
61189;BMP280;47054;39.716;2.904;2023-06-14T01:51:11;99496.16;;;25.68
61189;BMP280;47054;39.716;2.904;2023-06-14T01:53:56;99485.00;;;25.66
61189;BMP280;47054;39.716;2.904;2023-06-14T01:56:41;99485.44;;;25.65
61189;BMP280;47054;39.716;2.904;2023-06-14T01:59:26;99483.94;;;25.64
61189;BMP280;47054;39.716;2.904;2023-06-14T02:02:11;99486.19;;;25.65
61189;BMP280;47054;39.716;2.904;2023-06-14T02:04:55;99480.78;;;25.65
61189;BMP280;47054;39.716;2.904;2023-06-14T02:07:41;99470.34;;;25.64
61189;BMP280;47054;39.716;2.904;2023-06-14T02:10:26;99472.75;;;25.62
61189;BMP280;47054;39.716;2.904;2023-06-14T02:13:13;99473.94;;;25.61
61189;BMP280;47054;39.716;2.904;2023-06-14T02:15:57;99470.94;;;25.59
61189;BMP280;47054;39.716;2.904;2023-06-14T02:18:43;99474.53;;;25.56
61189;BMP280;47054;39.716;2.904;2023-06-14T02:21:28;99474.53;;;25.56
61189;BMP280;47054;39.716;2.904;2023-06-14T02:24:13;99471.06;;;25.55
61189;BMP280;47054;39.716;2.904;2023-06-14T02:26:58;99463.97;;;25.58
61189;BMP280;47054;39.716;2.904;2023-06-14T02:29:43;99467.44;;;25.58
61189;BMP280;47054;39.716;2.904;2023-06-14T02:32:27;99471.34;;;25.57
61189;BMP280;47054;39.716;2.904;2023-06-14T02:35:11;99475.91;;;25.60
61189;BMP280;47054;39.716;2.904;2023-06-14T02:37:57;99479.06;;;25.59
61189;BMP280;47054;39.716;2.904;2023-06-14T02:40:41;99482.69;;;25.56
61189;BMP280;47054;39.716;2.904;2023-06-14T02:43:26;99478.16;;;25.53
61189;BMP280;47054;39.716;2.904;2023-06-14T02:46:11;99479.44;;;25.48
61189;BMP280;47054;39.716;2.904;2023-06-14T02:48:55;99484.00;;;25.51
61189;BMP280;47054;39.716;2.904;2023-06-14T02:51:39;99490.94;;;25.52
61189;BMP280;47054;39.716;2.904;2023-06-14T02:54:24;99501.03;;;25.52
61189;BMP280;47054;39.716;2.904;2023-06-14T02:57:09;99493.66;;;25.52
61189;BMP280;47054;39.716;2.904;2023-06-14T02:59:55;99501.81;;;25.52
61189;BMP280;47054;39.716;2.904;2023-06-14T03:02:40;99506.03;;;25.53
61189;BMP280;47054;39.716;2.904;2023-06-14T03:05:27;99506.03;;;25.53
61189;BMP280;47054;39.716;2.904;2023-06-14T03:08:13;99486.28;;;25.53
61189;BMP280;47054;39.716;2.904;2023-06-14T03:11:02;99497.44;;;25.55
61189;BMP280;47054;39.716;2.904;2023-06-14T03:13:47;99496.25;;;25.56
61189;BMP280;47054;39.716;2.904;2023-06-14T03:16:32;99492.78;;;25.55
61189;BMP280;47054;39.716;2.904;2023-06-14T03:19:18;99487.03;;;25.53
61189;BMP280;47054;39.716;2.904;2023-06-14T03:22:03;99495.91;;;25.54
61189;BMP280;47054;39.716;2.904;2023-06-14T03:24:49;99496.66;;;25.54
61189;BMP280;47054;39.716;2.904;2023-06-14T03:27:34;99497.44;;;25.55
61189;BMP280;47054;39.716;2.904;2023-06-14T03:30:20;99495.50;;;25.55
61189;BMP280;47054;39.716;2.904;2023-06-14T03:33:07;99490.06;;;25.55
61189;BMP280;47054;39.716;2.904;2023-06-14T03:35:56;99483.41;;;25.56
61189;BMP280;47054;39.716;2.904;2023-06-14T03:38:41;99485.41;;;25.56
61189;BMP280;47054;39.716;2.904;2023-06-14T03:41:26;99482.69;;;25.56
61189;BMP280;47054;39.716;2.904;2023-06-14T03:44:15;99479.19;;;25.55
61189;BMP280;47054;39.716;2.904;2023-06-14T03:47:00;99478.00;;;25.56
61189;BMP280;47054;39.716;2.904;2023-06-14T03:49:46;99474.06;;;25.57
61189;BMP280;47054;39.716;2.904;2023-06-14T03:52:31;99476.50;;;25.55
61189;BMP280;47054;39.716;2.904;2023-06-14T03:55:17;99470.63;;;25.57
61189;BMP280;47054;39.716;2.904;2023-06-14T03:58:02;99473.31;;;25.57
61189;BMP280;47054;39.716;2.904;2023-06-14T04:00:47;99471.34;;;25.57
61189;BMP280;47054;39.716;2.904;2023-06-14T04:03:32;99477.13;;;25.59
61189;BMP280;47054;39.716;2.904;2023-06-14T04:06:19;99479.84;;;25.59
61189;BMP280;47054;39.716;2.904;2023-06-14T04:09:04;99482.09;;;25.61
61189;BMP280;47054;39.716;2.904;2023-06-14T04:11:49;99481.66;;;25.62
61189;BMP280;47054;39.716;2.904;2023-06-14T04:14:33;99485.56;;;25.61
61189;BMP280;47054;39.716;2.904;2023-06-14T04:17:19;99487.84;;;25.63
61189;BMP280;47054;39.716;2.904;2023-06-14T04:20:04;99481.22;;;25.64
61189;BMP280;47054;39.716;2.904;2023-06-14T04:22:51;99467.00;;;25.60
61189;BMP280;47054;39.716;2.904;2023-06-14T04:25:37;99476.97;;;25.63
61189;BMP280;47054;39.716;2.904;2023-06-14T04:28:22;99475.78;;;25.64
61189;BMP280;47054;39.716;2.904;2023-06-14T04:31:18;99469.28;;;25.61
61189;BMP280;47054;39.716;2.904;2023-06-14T04:34:03;99474.41;;;25.59
61189;BMP280;47054;39.716;2.904;2023-06-14T04:36:50;99484.91;;;25.57
61189;BMP280;47054;39.716;2.904;2023-06-14T04:39:37;99479.19;;;25.55
61189;BMP280;47054;39.716;2.904;2023-06-14T04:42:23;99486.69;;;25.51
61189;BMP280;47054;39.716;2.904;2023-06-14T04:45:15;99499.13;;;25.61
61189;BMP280;47054;39.716;2.904;2023-06-14T04:48:02;99498.44;;;25.48
61189;BMP280;47054;39.716;2.904;2023-06-14T04:50:46;99500.09;;;25.46
61189;BMP280;47054;39.716;2.904;2023-06-14T04:53:32;99504.44;;;25.43
61189;BMP280;47054;39.716;2.904;2023-06-14T04:56:17;99525.84;;;25.41
61189;BMP280;47054;39.716;2.904;2023-06-14T04:59:02;99526.59;;;25.42
61189;BMP280;47054;39.716;2.904;2023-06-14T05:01:50;99534.41;;;25.40
61189;BMP280;47054;39.716;2.904;2023-06-14T05:04:35;99529.31;;;25.42
61189;BMP280;47054;39.716;2.904;2023-06-14T05:07:23;99529.31;;;25.42
61189;BMP280;47054;39.716;2.904;2023-06-14T05:10:10;99529.59;;;25.44
61189;BMP280;47054;39.716;2.904;2023-06-14T05:12:55;99535.38;;;25.46
61189;BMP280;47054;39.716;2.904;2023-06-14T05:15:40;99541.22;;;25.44
61189;BMP280;47054;39.716;2.904;2023-06-14T05:18:25;99545.16;;;25.43
61189;BMP280;47054;39.716;2.904;2023-06-14T05:21:12;99542.75;;;25.45
61189;BMP280;47054;39.716;2.904;2023-06-14T05:23:57;99557.84;;;25.46
61189;BMP280;47054;39.716;2.904;2023-06-14T05:26:42;99554.38;;;25.46
61189;BMP280;47054;39.716;2.904;2023-06-14T05:29:26;99551.97;;;25.48
61189;BMP280;47054;39.716;2.904;2023-06-14T05:32:11;99551.56;;;25.49
61189;BMP280;47054;39.716;2.904;2023-06-14T05:34:56;99551.56;;;25.49
61189;BMP280;47054;39.716;2.904;2023-06-14T05:37:40;99558.47;;;25.50
61189;BMP280;47054;39.716;2.904;2023-06-14T05:40:25;99558.03;;;25.52
61189;BMP280;47054;39.716;2.904;2023-06-14T05:43:09;99570.72;;;25.55
61189;BMP280;47054;39.716;2.904;2023-06-14T05:45:55;99562.13;;;25.56
61189;BMP280;47054;39.716;2.904;2023-06-14T05:48:39;99571.78;;;25.57
61189;BMP280;47054;39.716;2.904;2023-06-14T05:51:24;99570.28;;;25.56
61189;BMP280;47054;39.716;2.904;2023-06-14T05:54:09;99569.72;;;25.61
61189;BMP280;47054;39.716;2.904;2023-06-14T05:56:54;99574.72;;;25.63
61189;BMP280;47054;39.716;2.904;2023-06-14T05:59:38;99580.00;;;25.66
61189;BMP280;47054;39.716;2.904;2023-06-14T06:02:23;99576.13;;;25.67
61189;BMP280;47054;39.716;2.904;2023-06-14T06:05:07;99576.00;;;25.71
61189;BMP280;47054;39.716;2.904;2023-06-14T06:07:53;99577.38;;;25.75
61189;BMP280;47054;39.716;2.904;2023-06-14T06:10:37;99580.72;;;25.79
61189;BMP280;47054;39.716;2.904;2023-06-14T06:13:22;99575.03;;;25.86
61189;BMP280;47054;39.716;2.904;2023-06-14T06:16:06;99573.25;;;25.92
61189;BMP280;47054;39.716;2.904;2023-06-14T06:18:51;99569.22;;;25.97
61189;BMP280;47054;39.716;2.904;2023-06-14T06:21:36;99578.00;;;26.01
61189;BMP280;47054;39.716;2.904;2023-06-14T06:24:21;99578.16;;;26.06
61189;BMP280;47054;39.716;2.904;2023-06-14T06:27:05;99589.97;;;26.12
61189;BMP280;47054;39.716;2.904;2023-06-14T06:29:52;99590.19;;;26.18
61189;BMP280;47054;39.716;2.904;2023-06-14T06:32:37;99602.31;;;26.26
61189;BMP280;47054;39.716;2.904;2023-06-14T06:35:22;99603.22;;;26.32
61189;BMP280;47054;39.716;2.904;2023-06-14T06:38:06;99599.47;;;26.39
61189;BMP280;47054;39.716;2.904;2023-06-14T06:40:51;99606.63;;;26.45
61189;BMP280;47054;39.716;2.904;2023-06-14T06:43:35;99600.91;;;26.52
61189;BMP280;47054;39.716;2.904;2023-06-14T06:46:20;99607.28;;;26.58
61189;BMP280;47054;39.716;2.904;2023-06-14T06:49:05;99611.66;;;26.65
61189;BMP280;47054;39.716;2.904;2023-06-14T06:52:05;99620.31;;;26.72
61189;BMP280;47054;39.716;2.904;2023-06-14T06:54:50;99624.09;;;26.75
61189;BMP280;47054;39.716;2.904;2023-06-14T06:57:39;99631.25;;;26.81
61189;BMP280;47054;39.716;2.904;2023-06-14T19:29:38;100081.81;;;25.71
61189;BMP280;47054;39.716;2.904;2023-06-14T19:32:23;100092.34;;;25.98
61189;BMP280;47054;39.716;2.904;2023-06-14T19:35:08;100095.06;;;26.23
61189;BMP280;47054;39.716;2.904;2023-06-14T19:37:53;100096.50;;;26.40
61189;BMP280;47054;39.716;2.904;2023-06-14T19:40:37;100102.38;;;26.51
61189;BMP280;47054;39.716;2.904;2023-06-14T19:43:22;100100.13;;;26.62
61189;BMP280;47054;39.716;2.904;2023-06-14T19:46:06;100113.91;;;26.68
61189;BMP280;47054;39.716;2.904;2023-06-14T19:48:51;100116.09;;;26.73
61189;BMP280;47054;39.716;2.904;2023-06-14T19:51:36;100122.19;;;26.77
61189;BMP280;47054;39.716;2.904;2023-06-14T19:54:20;100130.22;;;26.80
61189;BMP280;47054;39.716;2.904;2023-06-14T19:57:05;100136.75;;;26.83
61189;BMP280;47054;39.716;2.904;2023-06-14T19:59:50;100148.00;;;26.85
61189;BMP280;47054;39.716;2.904;2023-06-14T20:02:35;100154.19;;;26.85
61189;BMP280;47054;39.716;2.904;2023-06-14T20:05:19;100160.81;;;26.84
61189;BMP280;47054;39.716;2.904;2023-06-14T20:08:04;100165.81;;;26.86
61189;BMP280;47054;39.716;2.904;2023-06-14T20:10:51;100170.94;;;26.84
61189;BMP280;47054;39.716;2.904;2023-06-14T20:13:36;100180.66;;;26.85
61189;BMP280;47054;39.716;2.904;2023-06-14T20:16:21;100188.44;;;26.83
61189;BMP280;47054;39.716;2.904;2023-06-14T20:19:05;100195.09;;;26.82
61189;BMP280;47054;39.716;2.904;2023-06-14T20:21:50;100196.31;;;26.81
61189;BMP280;47054;39.716;2.904;2023-06-14T20:24:34;100195.53;;;26.80
61189;BMP280;47054;39.716;2.904;2023-06-14T20:27:19;100205.63;;;26.80
61189;BMP280;47054;39.716;2.904;2023-06-14T20:30:04;100204.13;;;26.79
61189;BMP280;47054;39.716;2.904;2023-06-14T20:32:49;100209.22;;;26.77
61189;BMP280;47054;39.716;2.904;2023-06-14T20:35:34;100210.88;;;26.74
61189;BMP280;47054;39.716;2.904;2023-06-14T20:38:18;100222.59;;;26.71
61189;BMP280;47054;39.716;2.904;2023-06-14T20:41:03;100223.16;;;26.66
61189;BMP280;47054;39.716;2.904;2023-06-14T20:43:48;100219.00;;;26.62
61189;BMP280;47054;39.716;2.904;2023-06-14T20:46:32;100216.09;;;26.56
61189;BMP280;47054;39.716;2.904;2023-06-14T20:49:19;100221.25;;;26.51
61189;BMP280;47054;39.716;2.904;2023-06-14T20:52:04;100221.47;;;26.44
61189;BMP280;47054;39.716;2.904;2023-06-14T20:54:48;100230.94;;;26.39
61189;BMP280;47054;39.716;2.904;2023-06-14T20:57:33;100231.13;;;26.32
61189;BMP280;47054;39.716;2.904;2023-06-14T21:00:20;100226.66;;;26.25
61189;BMP280;47054;39.716;2.904;2023-06-14T21:03:05;100238.47;;;26.19
61189;BMP280;47054;39.716;2.904;2023-06-14T21:05:50;100243.28;;;26.15
61189;BMP280;47054;39.716;2.904;2023-06-14T21:08:35;100238.00;;;26.08
61189;BMP280;47054;39.716;2.904;2023-06-14T21:11:20;100241.59;;;26.05
61189;BMP280;47054;39.716;2.904;2023-06-14T21:14:05;100240.53;;;25.99
61189;BMP280;47054;39.716;2.904;2023-06-14T21:16:49;100246.09;;;25.95
61189;BMP280;47054;39.716;2.904;2023-06-14T21:19:34;100249.25;;;25.94
61189;BMP280;47054;39.716;2.904;2023-06-14T21:22:18;100250.09;;;25.91
61189;BMP280;47054;39.716;2.904;2023-06-14T21:25:04;100247.03;;;25.89
61189;BMP280;47054;39.716;2.904;2023-06-14T21:27:48;100252.13;;;25.87
61189;BMP280;47054;39.716;2.904;2023-06-14T21:30:34;100239.16;;;25.78
61189;BMP280;47054;39.716;2.904;2023-06-14T21:33:19;100241.31;;;25.71
61189;BMP280;47054;39.716;2.904;2023-06-14T21:36:05;100248.06;;;25.63
61189;BMP280;47054;39.716;2.904;2023-06-14T21:38:49;100254.78;;;25.58
61189;BMP280;47054;39.716;2.904;2023-06-14T21:41:34;100258.75;;;25.54
61189;BMP280;47054;39.716;2.904;2023-06-14T21:44:22;100257.75;;;25.48
61189;BMP280;47054;39.716;2.904;2023-06-14T21:47:07;100252.56;;;25.37
61189;BMP280;47054;39.716;2.904;2023-06-14T21:49:52;100253.19;;;25.29
61189;BMP280;47054;39.716;2.904;2023-06-14T21:52:37;100258.06;;;25.18
61189;BMP280;47054;39.716;2.904;2023-06-14T21:55:21;100253.97;;;25.10
61189;BMP280;47054;39.716;2.904;2023-06-14T21:58:07;100252.09;;;25.07
61189;BMP280;47054;39.716;2.904;2023-06-14T22:00:52;100264.63;;;25.00
61189;BMP280;47054;39.716;2.904;2023-06-14T22:03:37;100258.59;;;24.93
61189;BMP280;47054;39.716;2.904;2023-06-14T22:06:21;100267.25;;;24.88
61189;BMP280;47054;39.716;2.904;2023-06-14T22:09:06;100268.13;;;24.81
61189;BMP280;47054;39.716;2.904;2023-06-14T22:11:50;100268.97;;;24.78
61189;BMP280;47054;39.716;2.904;2023-06-14T22:14:35;100265.13;;;24.76
61189;BMP280;47054;39.716;2.904;2023-06-14T22:17:20;100262.09;;;24.74
61189;BMP280;47054;39.716;2.904;2023-06-14T22:20:09;100267.59;;;24.70
61189;BMP280;47054;39.716;2.904;2023-06-14T22:22:55;100256.88;;;24.63
61189;BMP280;47054;39.716;2.904;2023-06-14T22:25:44;100266.53;;;24.64
61189;BMP280;47054;39.716;2.904;2023-06-14T22:28:29;100260.00;;;24.62
61189;BMP280;47054;39.716;2.904;2023-06-14T22:31:22;100267.03;;;24.59
61189;BMP280;47054;39.716;2.904;2023-06-14T22:34:07;100260.13;;;24.55
61189;BMP280;47054;39.716;2.904;2023-06-14T22:36:51;100259.38;;;24.54
61189;BMP280;47054;39.716;2.904;2023-06-14T22:39:38;100250.53;;;24.50
61189;BMP280;47054;39.716;2.904;2023-06-14T22:42:22;100255.63;;;24.48
61189;BMP280;47054;39.716;2.904;2023-06-14T22:45:08;100249.88;;;24.46
61189;BMP280;47054;39.716;2.904;2023-06-14T22:47:56;100247.97;;;24.43
61189;BMP280;47054;39.716;2.904;2023-06-14T22:50:41;100253.03;;;24.41
61189;BMP280;47054;39.716;2.904;2023-06-14T22:53:26;100248.13;;;24.36
61189;BMP280;47054;39.716;2.904;2023-06-14T22:56:14;100254.72;;;24.35
61189;BMP280;47054;39.716;2.904;2023-06-14T22:58:59;100240.81;;;24.33
61189;BMP280;47054;39.716;2.904;2023-06-14T23:01:46;100242.78;;;24.33
61189;BMP280;47054;39.716;2.904;2023-06-14T23:04:34;100252.41;;;24.34
61189;BMP280;47054;39.716;2.904;2023-06-14T23:07:19;100251.66;;;24.33
61189;BMP280;47054;39.716;2.904;2023-06-14T23:10:06;100254.72;;;24.35
61189;BMP280;47054;39.716;2.904;2023-06-14T23:12:51;100247.75;;;24.34
61189;BMP280;47054;39.716;2.904;2023-06-14T23:15:35;100245.81;;;24.35
61189;BMP280;47054;39.716;2.904;2023-06-14T23:18:21;100250.41;;;24.38
61189;BMP280;47054;39.716;2.904;2023-06-14T23:21:07;100240.31;;;24.38
61189;BMP280;47054;39.716;2.904;2023-06-14T23:23:57;100240.31;;;24.38
61189;BMP280;47054;39.716;2.904;2023-06-14T23:26:42;100243.31;;;24.44
61189;BMP280;47054;39.716;2.904;2023-06-14T23:29:29;100237.41;;;24.49
61189;BMP280;47054;39.716;2.904;2023-06-14T23:32:18;100239.34;;;24.48
61189;BMP280;47054;39.716;2.904;2023-06-14T23:35:04;100243.69;;;24.46
61189;BMP280;47054;39.716;2.904;2023-06-14T23:37:50;100237.13;;;24.43
61189;BMP280;47054;39.716;2.904;2023-06-14T23:40:34;100236.38;;;24.43
61189;BMP280;47054;39.716;2.904;2023-06-14T23:43:20;100238.66;;;24.44
61189;BMP280;47054;39.716;2.904;2023-06-14T23:46:05;100239.84;;;24.43
61189;BMP280;47054;39.716;2.904;2023-06-14T23:48:50;100234.41;;;24.43
